Terminal Aerodrome Forecast
Issued by NWS Tampa Bay Area, FL

Home | Current Version | Previous Version | Text Only | Print | Product List | Glossary On
Versions: 1 2 3 4 5 6 7 8 9 10 11 12 13 14 15 16 17 18 19 20 21 22 23 24 25
000
FTUS42 KTBW 230858 AAA
TAFTPA
TAF AMD
KTPA 230858Z 2309/2406 VRB03KT P6SM FEW025 SCT070
     FM231400 05010G15KT P6SM SCT020 SCT100
     FM231900 07011G17KT P6SM VCSH SCT025 OVC040
     FM240200 06010KT P6SM SCT020=

USA.gov is the U.S. government's official web portal to all federal, state and local government web resources and services.